createdAt,value
2018-11-28T00:00:09.983Z,92.52
2018-11-28T00:01:09.973Z,92.84
2018-11-28T00:02:09.990Z,92.63
2018-11-28T00:03:09.952Z,92.84
2018-11-28T00:04:09.982Z,93.26
2018-11-28T00:05:09.927Z,93.05
2018-11-28T00:06:09.920Z,93.26
2018-11-28T00:07:09.903Z,93.37
2018-11-28T00:08:09.918Z,93.47
2018-11-28T00:09:09.885Z,91.89
2018-11-28T00:10:09.912Z,91.62
2018-11-28T00:11:09.865Z,91.89
2018-11-28T00:12:09.856Z,92.52
2018-11-28T00:13:09.854Z,93.37
2018-11-28T00:14:09.861Z,92.42
2018-11-28T00:15:09.830Z,92.63
2018-11-28T00:16:09.829Z,93.30
2018-11-28T00:17:09.833Z,93.37
2018-11-28T00:18:09.839Z,93.30
2018-11-28T00:19:09.785Z,93.47
2018-11-28T00:20:09.860Z,93.26
2018-11-28T00:21:09.761Z,91.93
2018-11-28T00:22:09.759Z,91.83
2018-11-28T00:23:09.737Z,91.41
2018-11-28T00:24:09.741Z,90.88
2018-11-28T00:25:09.715Z,90.88
2018-11-28T00:26:09.716Z,91.20
2018-11-28T00:27:09.696Z,91.72
2018-11-28T00:28:09.693Z,91.93
2018-11-28T00:29:09.688Z,92.46
2018-11-28T00:30:09.658Z,93.41
2018-11-28T00:31:09.649Z,93.72
2018-11-28T00:32:09.654Z,93.72
2018-11-28T00:33:09.634Z,93.51
2018-11-28T00:34:09.640Z,93.51
2018-11-28T00:35:09.604Z,93.51
2018-11-28T00:36:09.595Z,93.51
2018-11-28T00:37:09.587Z,93.51
2018-11-28T00:38:09.586Z,93.41
2018-11-28T00:39:09.589Z,93.19
2018-11-28T00:40:09.558Z,92.99
2018-11-28T00:41:09.540Z,93.19
2018-11-28T00:42:09.536Z,93.30
2018-11-28T00:43:09.518Z,92.08
2018-11-28T00:44:09.528Z,92.57
2018-11-28T00:45:09.541Z,93.34
2018-11-28T00:46:09.489Z,93.66
2018-11-28T00:47:09.483Z,93.19
2018-11-28T00:48:09.473Z,93.51
2018-11-28T00:49:09.459Z,93.55
2018-11-28T00:50:09.475Z,93.30
2018-11-28T00:51:09.459Z,93.55
2018-11-28T00:52:09.420Z,92.88
2018-11-28T00:53:09.414Z,93.66
2018-11-28T00:54:09.405Z,94.08
2018-11-28T00:55:09.394Z,93.13
2018-11-28T00:56:09.399Z,92.76
2018-11-28T00:57:09.391Z,93.45
2018-11-28T00:58:09.361Z,93.55
2018-11-28T00:59:09.348Z,93.66
2018-11-28T01:00:09.343Z,93.03
2018-11-28T01:01:09.326Z,93.55
2018-11-28T01:02:09.344Z,93.55
2018-11-28T01:03:09.306Z,93.55
2018-11-28T01:04:09.297Z,93.98
2018-11-28T01:05:09.287Z,93.98
2018-11-28T01:06:09.284Z,94.50
2018-11-28T01:07:09.281Z,93.45
2018-11-28T01:08:09.292Z,94.40
2018-11-28T01:09:09.242Z,93.98
2018-11-28T01:10:09.236Z,93.72
2018-11-28T01:11:09.221Z,93.34
2018-11-28T01:12:09.233Z,93.24
2018-11-28T01:13:09.217Z,93.98
2018-11-28T01:14:09.219Z,94.60
2018-11-28T01:15:09.176Z,93.93
2018-11-28T01:16:09.166Z,94.46
2018-11-28T01:17:09.215Z,93.30
2018-11-28T01:18:09.156Z,94.71
2018-11-28T01:19:09.146Z,93.66
2018-11-28T01:20:09.125Z,93.13
2018-11-28T01:21:09.125Z,93.51
2018-11-28T01:22:09.105Z,93.03
2018-11-28T01:23:09.096Z,93.45
2018-11-28T01:24:09.094Z,93.98
2018-11-28T01:25:09.083Z,93.76
2018-11-28T01:26:09.059Z,93.19
2018-11-28T01:27:09.063Z,94.25
2018-11-28T01:28:09.042Z,93.72
2018-11-28T01:29:09.050Z,93.93
2018-11-28T01:30:09.030Z,94.88
2018-11-28T01:31:09.007Z,93.83
2018-11-28T01:32:08.994Z,93.83
2018-11-28T01:33:09.001Z,93.72
2018-11-28T01:34:09.015Z,93.72
2018-11-28T01:35:08.967Z,93.62
2018-11-28T01:36:08.953Z,93.93
2018-11-28T01:37:08.942Z,93.93
2018-11-28T01:38:08.934Z,93.62
2018-11-28T01:39:08.954Z,94.35
2018-11-28T01:40:08.930Z,94.35
2018-11-28T01:41:08.897Z,93.83
2018-11-28T01:42:08.890Z,93.83
2018-11-28T01:43:08.879Z,93.83
2018-11-28T01:44:08.869Z,93.19
2018-11-28T01:45:08.870Z,93.19
2018-11-28T01:46:08.863Z,93.98
2018-11-28T01:47:08.835Z,93.83
2018-11-28T01:48:08.829Z,93.24
2018-11-28T01:49:08.851Z,93.87
2018-11-28T01:50:08.803Z,93.93
2018-11-28T01:51:08.811Z,93.72
2018-11-28T01:52:08.783Z,93.72
2018-11-28T01:53:08.785Z,93.93
2018-11-28T01:54:08.768Z,93.41
2018-11-28T01:55:08.794Z,94.18
2018-11-28T01:56:08.740Z,93.83
2018-11-28T01:57:08.743Z,93.83
2018-11-28T01:58:08.717Z,94.14
2018-11-28T01:59:08.710Z,94.78
2018-11-28T02:00:08.702Z,94.98
2018-11-28T02:01:08.722Z,94.56
2018-11-28T02:02:08.675Z,94.35
2018-11-28T02:03:08.680Z,94.46
2018-11-28T02:04:08.674Z,94.35
2018-11-28T02:05:08.654Z,93.83
2018-11-28T02:06:08.640Z,94.04
2018-11-28T02:07:08.678Z,93.62
2018-11-28T02:08:08.625Z,93.76
2018-11-28T02:09:08.648Z,92.19
2018-11-28T02:10:08.621Z,92.50
2018-11-28T02:11:08.586Z,92.50
2018-11-28T02:12:08.603Z,93.66
2018-11-28T02:13:08.559Z,93.87
2018-11-28T02:14:08.545Z,94.46
2018-11-28T02:15:08.561Z,93.30
2018-11-28T02:16:08.528Z,93.62
2018-11-28T02:17:08.515Z,94.67
2018-11-28T02:18:08.543Z,94.46
2018-11-28T02:19:08.489Z,94.88
2018-11-28T02:20:08.479Z,95.30
2018-11-28T02:21:08.487Z,95.09
2018-11-28T02:22:08.461Z,95.51
2018-11-28T02:23:09.140Z,95.93
2018-11-28T02:24:08.486Z,95.20
2018-11-28T02:25:08.426Z,95.30
2018-11-28T02:26:08.419Z,95.93
2018-11-28T02:27:08.441Z,95.30
2018-11-28T02:28:08.402Z,94.88
2018-11-28T02:29:08.382Z,94.88
2018-11-28T02:30:08.393Z,93.83
2018-11-28T02:31:08.368Z,93.83
2018-11-28T02:32:08.349Z,93.93
2018-11-28T02:33:08.367Z,94.35
2018-11-28T02:34:08.348Z,93.72
2018-11-28T02:35:08.321Z,94.67
2018-11-28T02:36:08.311Z,94.67
2018-11-28T02:37:08.298Z,94.35
2018-11-28T02:38:08.292Z,94.78
2018-11-28T02:39:08.331Z,94.98
2018-11-28T02:40:08.271Z,94.56
2018-11-28T02:41:08.252Z,94.88
2018-11-28T02:42:08.243Z,94.56
2018-11-28T02:43:08.231Z,94.56
2018-11-28T02:44:08.224Z,94.08
2018-11-28T02:45:08.246Z,93.62
2018-11-28T02:46:08.205Z,93.62
2018-11-28T02:47:08.191Z,93.83
2018-11-28T02:48:08.180Z,94.08
2018-11-28T02:49:08.171Z,93.51
2018-11-28T02:50:08.163Z,93.93
2018-11-28T02:51:08.183Z,93.76
2018-11-28T02:52:08.153Z,93.72
2018-11-28T02:53:08.170Z,94.40
2018-11-28T02:54:08.123Z,94.67
2018-11-28T02:55:08.103Z,94.46
2018-11-28T02:56:08.096Z,94.88
2018-11-28T02:57:08.105Z,95.24
2018-11-28T02:58:08.074Z,95.09
2018-11-28T02:59:08.083Z,94.56
2018-11-28T03:00:08.049Z,94.88
2018-11-28T03:01:08.049Z,95.13
2018-11-28T03:02:08.043Z,94.78
2018-11-28T03:03:08.045Z,95.20
2018-11-28T03:04:08.011Z,95.09
2018-11-28T03:05:07.998Z,95.40
2018-11-28T03:06:07.984Z,95.09
2018-11-28T03:07:08.018Z,95.09
2018-11-28T03:08:07.971Z,94.78
2018-11-28T03:09:07.987Z,94.46
2018-11-28T03:10:07.947Z,94.46
2018-11-28T03:11:07.937Z,94.50
2018-11-28T03:12:07.932Z,94.40
2018-11-28T03:13:07.929Z,94.71
2018-11-28T03:14:07.909Z,93.19
2018-11-28T03:15:07.903Z,93.83
2018-11-28T03:16:07.881Z,93.72
2018-11-28T03:17:07.871Z,94.56
2018-11-28T03:18:07.879Z,94.35
2018-11-28T03:19:07.849Z,94.92
2018-11-28T03:20:07.845Z,94.98
2018-11-28T03:21:07.846Z,94.88
2018-11-28T03:22:07.816Z,94.92
2018-11-28T03:23:07.822Z,95.24
2018-11-28T03:24:07.809Z,94.60
2018-11-28T03:25:07.791Z,94.71
2018-11-28T03:26:07.776Z,95.20
2018-11-28T03:27:07.784Z,95.13
2018-11-28T03:28:07.770Z,95.13
2018-11-28T03:29:07.789Z,94.88
2018-11-28T03:30:07.740Z,95.20
2018-11-28T03:31:07.725Z,95.24
2018-11-28T03:32:07.714Z,95.34
2018-11-28T03:33:07.723Z,95.40
2018-11-28T03:34:07.694Z,95.09
2018-11-28T03:35:07.716Z,95.40
2018-11-28T03:36:07.697Z,96.25
2018-11-28T03:37:07.667Z,95.83
2018-11-28T03:38:07.643Z,95.72
2018-11-28T03:39:07.649Z,95.51
2018-11-28T03:40:07.629Z,95.62
2018-11-28T03:41:07.632Z,95.30
2018-11-28T03:42:07.604Z,95.62
2018-11-28T03:43:07.602Z,96.03
2018-11-28T03:44:07.582Z,95.30
2018-11-28T03:45:07.623Z,95.30
2018-11-28T03:46:07.559Z,95.09
2018-11-28T03:47:07.549Z,95.20
2018-11-28T03:48:07.546Z,94.78
2018-11-28T03:49:07.539Z,94.88
2018-11-28T03:50:07.544Z,95.30
2018-11-28T03:51:07.532Z,95.30
2018-11-28T03:52:07.498Z,94.46
2018-11-28T03:53:07.488Z,95.30
2018-11-28T03:54:07.479Z,95.09
2018-11-28T03:55:07.483Z,94.88
2018-11-28T03:56:07.454Z,94.78
2018-11-28T03:57:07.463Z,95.09
2018-11-28T03:58:07.432Z,94.60
2018-11-28T03:59:07.423Z,94.60
2018-11-28T04:00:07.435Z,95.24
2018-11-28T04:01:07.402Z,95.34
2018-11-28T04:02:07.390Z,95.40
2018-11-28T04:03:07.399Z,95.40
2018-11-28T04:04:07.368Z,96.03
2018-11-28T04:05:07.369Z,96.14
2018-11-28T04:06:07.347Z,95.83
2018-11-28T04:07:07.339Z,95.83
2018-11-28T04:08:07.326Z,95.30
2018-11-28T04:09:07.326Z,95.93
2018-11-28T04:10:07.324Z,96.14
2018-11-28T04:11:07.297Z,96.45
2018-11-28T04:12:07.280Z,96.25
2018-11-28T04:13:07.291Z,96.03
2018-11-28T04:14:07.265Z,95.83
2018-11-28T04:15:07.290Z,95.72
2018-11-28T04:16:07.241Z,95.93
2018-11-28T04:17:07.237Z,95.51
2018-11-28T04:18:07.231Z,95.83
2018-11-28T04:19:07.210Z,96.03
2018-11-28T04:20:07.243Z,96.03
2018-11-28T04:21:07.206Z,95.20
2018-11-28T04:22:07.181Z,96.25
2018-11-28T04:23:07.178Z,95.83
2018-11-28T04:24:07.158Z,95.09
2018-11-28T04:25:07.148Z,95.68
2018-11-28T04:26:07.156Z,96.20
2018-11-28T04:27:07.137Z,96.51
2018-11-28T04:28:07.118Z,96.83
2018-11-28T04:29:07.108Z,96.73
2018-11-28T04:30:07.101Z,96.73
2018-11-28T04:31:07.104Z,96.73
2018-11-28T04:32:07.076Z,95.68
2018-11-28T04:33:07.093Z,95.57
2018-11-28T04:34:07.055Z,95.68
2018-11-28T04:35:07.044Z,95.36
2018-11-28T04:36:07.048Z,95.26
2018-11-28T04:37:07.031Z,95.26
2018-11-28T04:38:07.018Z,95.04
2018-11-28T04:39:07.007Z,95.15
2018-11-28T04:40:07.002Z,95.26
2018-11-28T04:41:06.985Z,95.78
2018-11-28T04:42:07.014Z,95.99
2018-11-28T04:43:06.962Z,95.32
2018-11-28T04:44:06.950Z,96.20
2018-11-28T04:45:06.939Z,96.69
2018-11-28T04:46:06.957Z,96.79
2018-11-28T04:47:06.923Z,97.31
2018-11-28T04:48:06.929Z,97.21
2018-11-28T04:49:06.896Z,96.89
2018-11-28T04:50:06.890Z,96.89
2018-11-28T04:51:06.956Z,96.89
2018-11-28T04:52:06.884Z,96.47
2018-11-28T04:53:06.862Z,96.47
2018-11-28T04:54:06.848Z,96.47
2018-11-28T04:55:06.853Z,96.58
2018-11-28T04:56:06.819Z,96.26
2018-11-28T04:57:06.813Z,96.47
2018-11-28T04:58:06.821Z,96.69
2018-11-28T04:59:06.800Z,96.16
2018-11-28T05:00:06.779Z,95.53
2018-11-28T05:01:06.782Z,95.64
2018-11-28T05:02:06.759Z,95.84
2018-11-28T05:03:06.749Z,95.42
2018-11-28T05:04:06.791Z,94.90
2018-11-28T05:05:06.732Z,94.79
2018-11-28T05:06:06.717Z,94.69
2018-11-28T05:07:06.714Z,95.32
2018-11-28T05:08:06.702Z,94.79
2018-11-28T05:09:06.690Z,95.00
2018-11-28T05:10:06.713Z,94.69
2018-11-28T05:11:06.662Z,95.26
2018-11-28T05:12:06.653Z,95.15
2018-11-28T05:13:06.671Z,95.21
2018-11-28T05:14:06.651Z,95.95
2018-11-28T05:15:06.628Z,95.89
2018-11-28T05:16:06.634Z,95.84
2018-11-28T05:17:06.605Z,95.95
2018-11-28T05:18:06.592Z,95.32
2018-11-28T05:19:06.616Z,95.32
2018-11-28T05:20:06.577Z,95.64
2018-11-28T05:21:06.570Z,95.84
2018-11-28T05:22:06.622Z,95.89
2018-11-28T05:23:06.693Z,95.95
2018-11-28T05:24:06.528Z,96.05
2018-11-28T05:25:06.529Z,95.84
2018-11-28T05:26:06.508Z,95.95
2018-11-28T05:27:06.495Z,95.74
2018-11-28T05:28:06.483Z,95.53
2018-11-28T05:29:06.479Z,95.74
2018-11-28T05:30:06.608Z,95.21
2018-11-28T05:31:06.465Z,95.84
2018-11-28T05:32:06.441Z,95.84
2018-11-28T05:33:06.468Z,95.53
2018-11-28T05:34:06.439Z,96.64
2018-11-28T05:35:06.412Z,96.47
2018-11-28T05:36:06.430Z,96.95
2018-11-28T05:37:06.392Z,95.59
2018-11-28T05:38:06.380Z,95.70
2018-11-28T05:39:06.371Z,95.80
2018-11-28T05:40:06.382Z,95.80
2018-11-28T05:41:06.373Z,95.28
2018-11-28T05:42:06.338Z,96.01
2018-11-28T05:43:06.333Z,96.07
2018-11-28T05:44:06.359Z,96.75
2018-11-28T05:45:06.308Z,96.70
2018-11-28T05:46:06.298Z,95.65
2018-11-28T05:47:06.303Z,96.81
2018-11-28T05:48:06.282Z,96.39
2018-11-28T05:49:06.264Z,96.59
2018-11-28T05:50:06.265Z,95.86
2018-11-28T05:51:06.282Z,95.76
2018-11-28T05:52:06.287Z,95.65
2018-11-28T05:53:06.222Z,95.76
2018-11-28T05:54:06.224Z,95.40
2018-11-28T05:55:06.197Z,95.65
2018-11-28T05:56:06.184Z,95.65
2018-11-28T05:57:06.233Z,95.34
2018-11-28T05:58:06.167Z,95.86
2018-11-28T05:59:06.156Z,95.50
2018-11-28T06:00:06.143Z,95.61
2018-11-28T06:01:06.256Z,95.40
2018-11-28T06:02:06.147Z,96.07
2018-11-28T06:03:06.123Z,95.54
2018-11-28T06:04:06.163Z,95.86
2018-11-28T06:05:06.088Z,95.40
2018-11-28T06:06:06.081Z,95.40
2018-11-28T06:07:06.067Z,95.65
2018-11-28T06:08:06.086Z,95.76
2018-11-28T06:09:06.118Z,94.98
2018-11-28T06:10:06.160Z,95.72
2018-11-28T06:11:06.043Z,95.82
2018-11-28T06:12:06.022Z,95.72
2018-11-28T06:13:06.033Z,95.40
2018-11-28T06:14:06.005Z,95.40
2018-11-28T06:15:05.989Z,95.34
2018-11-28T06:16:06.007Z,95.13
2018-11-28T06:17:05.967Z,95.13
2018-11-28T06:18:05.952Z,94.98
2018-11-28T06:19:06.056Z,95.19
2018-11-28T06:20:05.928Z,95.61
2018-11-28T06:21:05.914Z,95.40
2018-11-28T06:22:05.922Z,95.61
2018-11-28T06:23:05.905Z,95.29
2018-11-28T06:24:05.911Z,94.98
2018-11-28T06:25:05.877Z,95.29
2018-11-28T06:26:05.880Z,95.40
2018-11-28T06:27:05.848Z,95.82
2018-11-28T06:28:05.840Z,96.30
2018-11-28T06:29:05.833Z,95.98
2018-11-28T06:30:05.834Z,95.88
2018-11-28T06:31:05.817Z,94.93
2018-11-28T06:32:05.794Z,95.98
2018-11-28T06:33:05.784Z,94.62
2018-11-28T06:34:05.803Z,95.78
2018-11-28T06:35:05.769Z,95.25
2018-11-28T06:36:05.783Z,94.41
2018-11-28T06:37:05.752Z,94.83
2018-11-28T06:38:05.748Z,94.83
2018-11-28T06:39:05.848Z,94.93
2018-11-28T06:40:05.750Z,95.04
2018-11-28T06:41:05.736Z,95.67
2018-11-28T06:42:05.744Z,95.67
2018-11-28T06:43:05.739Z,95.15
2018-11-28T06:44:05.674Z,95.15
2018-11-28T06:45:05.673Z,95.15
2018-11-28T06:46:05.656Z,94.93
2018-11-28T06:47:05.642Z,95.00
2018-11-28T06:48:05.624Z,95.21
2018-11-28T06:49:05.665Z,95.73
2018-11-28T06:50:05.617Z,95.62
2018-11-28T06:51:06.075Z,95.21
2018-11-28T06:52:05.582Z,95.10
2018-11-28T06:53:05.586Z,94.89
2018-11-28T06:54:05.560Z,95.31
2018-11-28T06:55:05.558Z,96.04
2018-11-28T06:56:05.568Z,95.10
2018-11-28T06:57:05.524Z,94.68
2018-11-28T06:58:05.521Z,95.17
2018-11-28T06:59:05.507Z,95.00
2018-11-28T07:00:05.492Z,94.43
2018-11-28T07:01:05.490Z,94.85
2018-11-28T07:02:05.483Z,95.06
2018-11-28T07:03:05.463Z,94.64
2018-11-28T07:04:05.484Z,94.95
2018-11-28T07:05:05.440Z,94.95
2018-11-28T07:06:05.430Z,94.95
2018-11-28T07:07:05.431Z,94.60
2018-11-28T07:08:05.405Z,94.74
2018-11-28T07:09:05.394Z,94.49
2018-11-28T07:10:05.399Z,94.49
2018-11-28T07:11:05.390Z,95.01
2018-11-28T07:12:05.367Z,95.01
2018-11-28T07:13:05.376Z,95.18
2018-11-28T07:14:05.343Z,94.18
2018-11-28T07:15:05.338Z,94.34
2018-11-28T07:16:05.327Z,94.34
2018-11-28T07:17:05.348Z,94.45
2018-11-28T07:18:05.339Z,94.45
2018-11-28T07:19:05.300Z,94.87
2018-11-28T07:20:05.312Z,94.66
2018-11-28T07:21:05.274Z,95.14
2018-11-28T07:22:05.280Z,94.30
2018-11-28T07:23:05.245Z,94.51
2018-11-28T07:24:05.237Z,94.51
2018-11-28T07:25:05.234Z,94.09
2018-11-28T07:26:05.252Z,94.51
2018-11-28T07:27:05.201Z,94.05
2018-11-28T07:28:05.209Z,93.84
2018-11-28T07:29:05.207Z,94.46
2018-11-28T07:30:05.168Z,94.36
2018-11-28T07:31:05.163Z,93.95
2018-11-28T07:32:05.171Z,93.84
2018-11-28T07:33:05.135Z,93.84
2018-11-28T07:34:05.144Z,94.32
2018-11-28T07:35:05.114Z,94.36
2018-11-28T07:36:05.106Z,93.80
2018-11-28T07:37:05.106Z,93.59
2018-11-28T07:38:05.112Z,93.38
2018-11-28T07:39:05.078Z,93.27
2018-11-28T07:40:05.057Z,93.23
2018-11-28T07:41:05.064Z,93.33
2018-11-28T07:42:05.039Z,93.44
2018-11-28T07:43:05.028Z,93.02
2018-11-28T07:44:05.035Z,93.33
2018-11-28T07:45:05.015Z,93.33
2018-11-28T07:46:05.016Z,93.08
2018-11-28T07:47:04.985Z,93.23
2018-11-28T07:48:04.978Z,93.23
2018-11-28T07:49:04.965Z,93.23
2018-11-28T07:50:04.959Z,93.29
2018-11-28T07:51:04.975Z,92.98
2018-11-28T07:52:04.934Z,93.19
2018-11-28T07:53:04.926Z,93.19
2018-11-28T07:54:04.911Z,93.40
2018-11-28T07:55:04.914Z,93.08
2018-11-28T07:56:04.908Z,92.66
2018-11-28T07:57:04.877Z,93.61
2018-11-28T07:58:04.887Z,93.29
2018-11-28T07:59:04.856Z,93.50
2018-11-28T08:00:04.846Z,93.40
2018-11-28T08:01:04.854Z,93.40
2018-11-28T08:02:04.877Z,93.40
2018-11-28T08:03:04.814Z,93.15
2018-11-28T08:04:04.823Z,93.40
2018-11-28T08:05:04.794Z,92.63
2018-11-28T08:06:04.793Z,92.73
2018-11-28T08:07:04.770Z,93.04
2018-11-28T08:08:04.778Z,92.73
2018-11-28T08:09:04.895Z,92.63
2018-11-28T08:10:04.795Z,93.04
2018-11-28T08:11:04.733Z,92.63
2018-11-28T08:12:04.746Z,92.73
2018-11-28T08:13:04.728Z,92.63
2018-11-28T08:14:04.695Z,92.10
2018-11-28T08:15:04.721Z,91.89
2018-11-28T08:16:04.675Z,92.52
2018-11-28T08:17:04.680Z,92.52
2018-11-28T08:18:04.661Z,92.47
2018-11-28T08:19:04.666Z,92.16
2018-11-28T08:20:04.646Z,92.63
2018-11-28T08:21:04.625Z,91.69
2018-11-28T08:22:04.611Z,91.96
2018-11-28T08:23:04.620Z,92.58
2018-11-28T08:24:04.613Z,92.63
2018-11-28T08:25:04.893Z,92.58
2018-11-28T08:26:04.589Z,92.27
2018-11-28T08:27:04.556Z,92.37
2018-11-28T08:28:04.546Z,92.58
2018-11-28T08:29:04.537Z,92.54
2018-11-28T08:30:04.542Z,92.06
2018-11-28T08:31:04.531Z,92.47
2018-11-28T08:32:04.609Z,92.47
2018-11-28T08:33:04.493Z,91.60
2018-11-28T08:34:04.507Z,91.71
2018-11-28T08:35:04.556Z,91.25
2018-11-28T08:36:04.495Z,91.29
2018-11-28T08:37:04.456Z,91.04
2018-11-28T08:38:04.439Z,91.25
2018-11-28T08:39:04.890Z,90.79
2018-11-28T08:40:04.602Z,90.58
2018-11-28T08:41:04.420Z,91.00
2018-11-28T08:42:04.400Z,90.47
2018-11-28T08:43:04.810Z,90.68
2018-11-28T08:44:04.369Z,90.54
2018-11-28T08:45:05.027Z,89.39
2018-11-28T08:46:04.377Z,88.66
2018-11-28T08:47:04.577Z,89.39
2018-11-28T08:48:07.028Z,89.45
2018-11-28T08:49:07.030Z,89.35
2018-11-28T08:50:05.033Z,88.52
2018-11-28T08:51:04.299Z,89.14
2018-11-28T08:52:04.290Z,89.35
2018-11-28T08:53:04.318Z,88.42
2018-11-28T08:54:04.267Z,89.04
2018-11-28T08:55:04.290Z,89.20
2018-11-28T08:56:04.254Z,88.27
2018-11-28T08:57:04.240Z,88.37
2018-11-28T08:58:04.219Z,88.79
2018-11-28T08:59:04.222Z,88.48
2018-11-28T09:00:04.194Z,88.58
2018-11-28T09:01:04.190Z,87.29
2018-11-28T09:02:04.208Z,88.33
2018-11-28T09:03:04.201Z,87.60
2018-11-28T09:04:04.175Z,87.35
2018-11-28T09:05:04.154Z,88.09
2018-11-28T09:06:04.139Z,86.98
2018-11-28T09:07:04.143Z,88.19
2018-11-28T09:08:04.117Z,87.08
2018-11-28T09:09:04.110Z,87.04
2018-11-28T09:10:04.100Z,87.66
2018-11-28T09:11:04.119Z,87.46
2018-11-28T09:12:04.073Z,87.52
2018-11-28T09:13:04.550Z,87.01
2018-11-28T09:14:04.685Z,87.21
2018-11-28T09:15:04.080Z,86.59
2018-11-28T09:16:04.026Z,86.27
2018-11-28T09:17:04.068Z,87.42
2018-11-28T09:18:04.015Z,85.55
2018-11-28T09:19:04.008Z,86.65
2018-11-28T09:20:03.995Z,85.82
2018-11-28T09:21:03.999Z,85.30
2018-11-28T09:22:03.965Z,85.41
2018-11-28T09:23:03.946Z,85.41
2018-11-28T09:24:03.973Z,86.76
2018-11-28T09:25:03.942Z,87.03
2018-11-28T09:26:03.924Z,86.51
2018-11-28T09:27:03.940Z,85.30
2018-11-28T09:28:03.897Z,85.36
2018-11-28T09:29:03.935Z,86.76
2018-11-28T09:30:03.887Z,86.51
2018-11-28T09:31:04.526Z,86.61
2018-11-28T09:32:03.856Z,85.05
2018-11-28T09:33:03.850Z,85.26
2018-11-28T09:34:03.829Z,86.47
2018-11-28T09:35:03.851Z,84.74
2018-11-28T09:36:03.851Z,84.64
2018-11-28T09:37:03.824Z,84.81
2018-11-28T09:38:03.795Z,85.12
2018-11-28T09:39:03.778Z,85.53
2018-11-28T09:40:03.772Z,86.16
2018-11-28T09:41:03.815Z,85.22
2018-11-28T09:42:03.740Z,86.68
2018-11-28T09:43:03.732Z,85.12
2018-11-28T09:44:03.745Z,84.08
2018-11-28T09:45:03.710Z,84.98
2018-11-28T09:46:03.707Z,85.19
2018-11-28T09:47:03.688Z,84.88
2018-11-28T09:48:03.674Z,85.22
2018-11-28T09:49:03.704Z,84.36
2018-11-28T09:50:03.657Z,84.98
2018-11-28T09:51:03.730Z,85.08
2018-11-28T09:52:03.631Z,82.90
2018-11-28T09:53:03.625Z,82.39
2018-11-28T09:54:03.616Z,83.11
2018-11-28T09:55:03.601Z,84.52
2018-11-28T09:56:03.613Z,84.94
2018-11-28T09:57:03.616Z,83.80
2018-11-28T09:58:03.575Z,83.59
2018-11-28T09:59:03.555Z,83.80
2018-11-28T10:00:03.546Z,83.28
2018-11-28T10:01:03.535Z,83.34
2018-11-28T10:02:03.580Z,83.34
2018-11-28T10:03:03.515Z,83.86
2018-11-28T10:04:03.502Z,83.76
2018-11-28T10:05:03.588Z,84.07
2018-11-28T10:06:03.613Z,83.65
2018-11-28T10:07:03.473Z,83.93
2018-11-28T10:08:03.479Z,84.03
2018-11-28T10:09:03.444Z,83.62
2018-11-28T10:10:03.437Z,83.31
2018-11-28T10:11:03.438Z,83.83
2018-11-28T10:12:03.410Z,82.89
2018-11-28T10:13:03.429Z,81.44
2018-11-28T10:14:03.408Z,81.65
2018-11-28T10:15:03.377Z,82.48
2018-11-28T10:16:03.375Z,81.75
2018-11-28T10:17:03.364Z,80.88
2018-11-28T10:18:03.350Z,80.71
2018-11-28T10:19:03.353Z,80.78
2018-11-28T10:20:03.361Z,81.61
2018-11-28T10:21:03.314Z,80.68
2018-11-28T10:22:03.298Z,80.88
2018-11-28T10:23:03.338Z,81.71
2018-11-28T10:24:03.279Z,81.40
2018-11-28T10:25:03.266Z,81.51
2018-11-28T10:26:03.255Z,80.68
2018-11-28T10:27:03.311Z,81.30
2018-11-28T10:28:03.250Z,80.99
2018-11-28T10:29:03.252Z,81.68
2018-11-28T10:30:03.215Z,81.05
2018-11-28T10:31:03.203Z,80.43
2018-11-28T10:32:03.190Z,80.74
2018-11-28T10:33:03.259Z,82.03
2018-11-28T10:34:03.187Z,80.85
2018-11-28T10:35:03.208Z,81.26
2018-11-28T10:36:03.246Z,82.40
2018-11-28T10:37:03.181Z,80.64
2018-11-28T10:38:03.123Z,82.71
2018-11-28T10:39:03.114Z,81.16
2018-11-28T10:40:03.100Z,80.85
2018-11-28T10:41:03.218Z,81.43
2018-11-28T10:42:03.085Z,79.98
2018-11-28T10:43:03.067Z,79.88
2018-11-28T10:44:03.073Z,79.16
2018-11-28T10:45:03.055Z,80.40
2018-11-28T10:46:03.168Z,79.36
2018-11-28T10:47:03.041Z,79.36
2018-11-28T10:48:03.012Z,79.26
2018-11-28T10:49:03.191Z,79.77
2018-11-28T10:50:02.998Z,79.53
2018-11-28T10:51:02.994Z,79.12
2018-11-28T10:52:02.979Z,78.91
2018-11-28T10:53:02.960Z,79.22
2018-11-28T10:54:02.948Z,78.19
2018-11-28T10:55:02.952Z,78.50
2018-11-28T10:56:02.940Z,78.15
2018-11-28T10:57:02.912Z,78.15
2018-11-28T10:58:02.931Z,78.50
2018-11-28T10:59:02.903Z,77.98
2018-11-28T11:00:02.983Z,78.05
2018-11-28T11:01:02.896Z,77.12
2018-11-28T11:02:02.888Z,77.74
2018-11-28T11:03:02.853Z,77.22
2018-11-28T11:04:02.843Z,77.64
2018-11-28T11:05:02.834Z,78.15
2018-11-28T11:06:02.843Z,78.15
2018-11-28T11:07:02.807Z,78.15
2018-11-28T11:08:02.814Z,77.91
2018-11-28T11:09:02.787Z,77.19
2018-11-28T11:10:02.779Z,77.39
2018-11-28T11:11:02.764Z,78.42
2018-11-28T11:12:02.795Z,77.08
2018-11-28T11:13:02.762Z,76.56
2018-11-28T11:14:02.733Z,77.81
2018-11-28T11:15:02.719Z,76.26
2018-11-28T11:16:02.731Z,76.87
2018-11-28T11:17:02.701Z,76.46
2018-11-28T11:18:02.725Z,76.46
2018-11-28T11:19:02.701Z,76.64
2018-11-28T11:20:02.724Z,76.43
2018-11-28T11:21:02.658Z,76.32
2018-11-28T11:22:02.758Z,76.43
2018-11-28T11:23:02.629Z,76.43
2018-11-28T11:24:02.643Z,74.77
2018-11-28T11:25:02.654Z,75.70
2018-11-28T11:26:02.598Z,75.70
2018-11-28T11:27:02.591Z,75.09
2018-11-28T11:28:02.623Z,76.32
2018-11-28T11:29:02.589Z,76.84
2018-11-28T11:30:02.555Z,76.81
2018-11-28T11:31:02.566Z,76.29
2018-11-28T11:32:02.558Z,76.08
2018-11-28T11:33:02.536Z,74.84
2018-11-28T11:34:02.511Z,74.84
2018-11-28T11:35:02.523Z,74.43
2018-11-28T11:36:02.498Z,74.74
2018-11-28T11:37:02.485Z,74.95
2018-11-28T11:38:02.496Z,74.29
2018-11-28T11:39:02.495Z,73.91
2018-11-28T11:40:02.450Z,73.09
2018-11-28T11:41:02.438Z,73.05
2018-11-28T11:42:02.419Z,73.16
2018-11-28T11:43:02.414Z,73.36
2018-11-28T11:44:02.425Z,73.05
2018-11-28T11:45:02.402Z,72.85
2018-11-28T11:46:02.386Z,71.92
2018-11-28T11:47:02.381Z,71.71
2018-11-28T11:48:02.355Z,71.71
2018-11-28T11:49:02.344Z,72.92
2018-11-28T11:50:02.425Z,72.44
2018-11-28T11:51:02.336Z,72.85
2018-11-28T11:52:02.332Z,72.50
2018-11-28T11:53:02.305Z,71.26
2018-11-28T11:54:02.363Z,70.47
2018-11-28T11:55:02.287Z,70.96
2018-11-28T11:56:02.311Z,71.47
2018-11-28T11:57:02.284Z,71.06
2018-11-28T11:58:02.263Z,70.75
2018-11-28T11:59:02.237Z,70.65
2018-11-28T12:00:02.327Z,70.34
2018-11-28T12:01:02.351Z,71.26
2018-11-28T12:02:02.239Z,71.44
2018-11-28T12:03:02.204Z,70.72
2018-11-28T12:04:02.200Z,69.59
2018-11-28T12:05:02.176Z,69.38
2018-11-28T12:06:02.180Z,69.48
2018-11-28T12:07:02.186Z,70.10
2018-11-28T12:08:02.141Z,71.34
2018-11-28T12:09:02.130Z,71.44
2018-11-28T12:10:02.110Z,69.38
2018-11-28T12:11:02.123Z,69.48
2018-11-28T12:12:02.138Z,69.69
2018-11-28T12:13:02.087Z,69.69
2018-11-28T12:14:02.083Z,69.69
2018-11-28T12:15:02.064Z,69.17
2018-11-28T12:16:02.125Z,69.27
2018-11-28T12:17:02.044Z,69.27
2018-11-28T12:18:02.062Z,70.37
2018-11-28T12:19:02.017Z,69.76
2018-11-28T12:20:02.013Z,69.65
2018-11-28T12:21:02.052Z,69.48
2018-11-28T12:22:01.983Z,69.14
2018-11-28T12:23:01.979Z,68.52
2018-11-28T12:24:02.007Z,68.35
2018-11-28T12:25:01.960Z,69.55
2018-11-28T12:26:01.960Z,68.42
2018-11-28T12:27:01.946Z,68.52
2018-11-28T12:28:01.915Z,67.80
2018-11-28T12:29:01.922Z,68.21
2018-11-28T12:30:01.901Z,69.45
2018-11-28T12:31:01.881Z,68.01
2018-11-28T12:32:01.893Z,69.01
2018-11-28T12:33:01.880Z,68.32
2018-11-28T12:34:01.852Z,68.42
2018-11-28T12:35:01.845Z,67.97
2018-11-28T12:36:01.829Z,68.01
2018-11-28T12:37:01.846Z,68.08
2018-11-28T12:38:01.882Z,67.15
2018-11-28T12:39:01.823Z,66.84
2018-11-28T12:40:01.794Z,67.66
2018-11-28T12:41:01.774Z,67.57
2018-11-28T12:42:01.765Z,68.18
2018-11-28T12:43:01.754Z,67.97
2018-11-28T12:44:01.748Z,69.42
2018-11-28T12:45:01.741Z,68.29
2018-11-28T12:46:01.773Z,68.08
2018-11-28T12:47:01.713Z,68.29
2018-11-28T12:48:01.703Z,67.97
2018-11-28T12:49:01.704Z,68.18
2018-11-28T12:50:01.700Z,68.29
2018-11-28T12:51:01.668Z,68.15
2018-11-28T12:52:01.667Z,68.08